Westland, MI (48186)

7:20 AM EDT on September 05, 2015 (GMT -0400)
Garden City Weather | | Change Station
CLOSE
Current Station
Personal Weather Station
Location: Garden City, MI
Elevation: 640 ft
Nearby Weather Stations

Elev 640 ft 42.32 °N, 83.35 °W | Updated 13 seconds ago

Overcast
Overcast
69.4 °F
Feels Like 69.4 °F
N
0.0
Wind Variable Wind from WSW
Gusts 0.0 mph

Today
High -- | Low -- °F
--% Chance of Precip.
Yesterday
High -- | Low -- °F
Precip. -- in
7:02 AM 8:01 PM
Waning Gibbous, 49% visible
Pressure 30.12 in
Visibility 4.0 miles
Clouds Mostly Cloudy 2000 ft
Mostly Cloudy 5500 ft
Dew Point 65 °F
Humidity 87%
Rainfall 0.00 in
Snow Depth Not available.
UV 0 out of 12
Pollen 7.50 out of 12
Air Quality Not available.
Flu Activity Not available.
METAR KDTW 051053Z 00000KT 4SM BR BKN020 BKN055 21/19 A3013 RMK AO2 SLP198 T02110194
Pressure 30.12 in
Visibility 4.0 miles
Clouds Mostly Cloudy 2000 ft
Mostly Cloudy 5500 ft
Dew Point 65 °F
Humidity 87%
Rainfall 0.00 in
Snow Depth Not available.
UV 0 out of 12
Pollen 7.50 out of 12
Air Quality Not available.
Flu Activity Not available.
METAR KDTW 051053Z 00000KT 4SM BR BKN020 BKN055 21/19 A3013 RMK AO2 SLP198 T02110194

10-Day Weather Forecast

×

Almanac

Astronomy

Sep. 05, 2015 Rise Set
Actual Time
Civil Twilight
Nautical Twilight
Astronomical Twilight
Moon
Length of Visible Light
Length of Day
Tomorrow will be .
, % of the Moon is Illuminated

Today's Extremes

State Highs State Lows

Community

WunderPhotos

Upload Photos

1,852,445 photos uploaded!

WunderBlogs® & News

Nearby

Air Quality

  Air Quality AQ Index Pollutant
Not available.

Snow Depth

Station Depth Elevation

Earthquake Activity

City Distance Mag. Time & Date
Minimum magnitude displayed is 2.5.

Coastal Water Temperatures

Place Temperature

Stations

Nearby Weather Stations

Station Location Temp. Windchill Dew Point Humidity Wind Precip. Elev Updated Type